Time;durP1;ratioP1;P1;durP2;ratioP2;P2;SDS_P1;SDS_P2;PMS_P1;PMS_P2;Temp;Humidity;BMP_temperature;BMP_pressure;BME280_temperature;BME280_humidity;BME280_pressure;Samples;Min_cycle;Max_cycle;Signal;HPM_P1;HPM_P2
2023/03/02 00:01:34;;;;;;;1.77;1.10;;;;;;;-0.24;54.50;99192.56;6059512;23;20742;-85
2023/03/02 00:04:08;;;;;;;2.83;1.30;;;;;;;-0.80;54.61;99123.00;6015195;23;20018;-84
2023/03/02 00:06:36;;;;;;;3.60;1.70;;;;;;;-0.23;54.41;99215.63;6085649;23;20018;-83
2023/03/02 00:09:12;;;;;;;4.50;1.50;;;;;;;-1.32;54.11;99025.47;6085531;23;20130;-85
2023/03/02 00:11:40;;;;;;;2.47;1.20;;;;;;;-1.10;54.20;99047.28;6038346;23;20026;-85
2023/03/02 00:14:07;;;;;;;3.72;1.27;;;;;;;-1.75;54.63;98963.06;6086481;23;20078;-84
2023/03/02 00:16:39;;;;;;;3.90;1.40;;;;;;;-1.61;54.81;99019.56;6066448;23;20022;-82
2023/03/02 00:19:05;;;;;;;2.10;1.42;;;;;;;-1.05;54.54;99121.50;6087273;23;20025;-81
2023/03/02 00:21:35;;;;;;;4.05;1.60;;;;;;;-1.91;54.41;98990.69;6086159;23;20029;-85
2023/03/02 00:24:01;;;;;;;4.47;1.30;;;;;;;-0.59;55.16;99207.88;6098093;23;20018;-84
2023/03/02 00:26:33;;;;;;;4.95;1.40;;;;;;;-2.17;53.87;98966.97;6124675;23;20017;-85
2023/03/02 00:29:02;;;;;;;;;;;;;;;-0.78;54.69;99212.50;6077336;23;20006;-84
2023/03/02 00:31:31;;;;;;;2.22;1.25;;;;;;;-0.71;54.87;99221.19;6075991;23;19901;-84
2023/03/02 00:33:57;;;;;;;1.98;1.27;;;;;;;-1.18;54.57;99142.41;6050487;23;20006;-85
2023/03/02 00:36:24;;;;;;;3.42;1.30;;;;;;;-1.17;55.04;99156.91;6061796;23;20049;-83
2023/03/02 00:38:53;;;;;;;4.50;1.40;;;;;;;-1.37;55.04;99106.16;6087759;23;20061;-85
2023/03/02 00:41:20;;;;;;;3.17;1.40;;;;;;;-1.27;55.32;99113.25;6060129;23;20019;-83
2023/03/02 00:43:50;;;;;;;2.75;1.45;;;;;;;-1.50;55.02;99068.34;6083776;23;20360;-83
2023/03/02 00:46:27;;;;;;;1.90;1.25;;;;;;;-1.23;55.52;99127.84;6059137;23;20439;-82
2023/03/02 00:49:04;;;;;;;1.30;1.20;;;;;;;-0.71;55.36;99224.59;6082802;23;20026;-83
2023/03/02 00:51:30;;;;;;;3.33;1.40;;;;;;;-1.03;55.00;99183.72;6082827;23;20101;-82
2023/03/02 00:53:56;;;;;;;2.42;1.40;;;;;;;-1.39;55.42;99124.00;6061175;23;20038;-83
2023/03/02 00:56:23;;;;;;;3.20;1.70;;;;;;;-1.66;55.74;99073.03;6109992;23;20014;-83
2023/03/02 00:58:54;;;;;;;2.00;1.40;;;;;;;-0.81;55.36;99210.69;6084597;23;20127;-82
2023/03/02 01:01:21;;;;;;;4.22;1.58;;;;;;;-1.51;54.91;99090.44;6060282;23;20096;-83
2023/03/02 01:03:56;;;;;;;3.85;1.65;;;;;;;-1.03;55.08;99170.06;6061130;23;20022;-82
2023/03/02 01:06:25;;;;;;;3.85;1.67;;;;;;;-1.29;55.25;99148.09;6038512;23;20022;-83
2023/03/02 01:08:57;;;;;;;3.35;1.50;;;;;;;-0.92;54.93;99223.19;6084579;23;20019;-84
2023/03/02 01:11:23;;;;;;;2.38;1.63;;;;;;;-1.38;54.96;99158.03;6109956;23;20109;-85
2023/03/02 01:13:51;;;;;;;3.60;1.92;;;;;;;-0.67;55.54;99269.88;6060144;23;20716;-84
2023/03/02 01:16:21;;;;;;;3.90;1.80;;;;;;;-0.91;55.36;99214.69;6109744;23;20364;-84
2023/03/02 01:18:50;;;;;;;3.72;1.40;;;;;;;-1.77;54.94;99085.47;6091566;23;20089;-82
2023/03/02 01:21:16;;;;;;;5.28;1.55;;;;;;;-0.76;55.37;99242.38;6061487;23;20010;-83
2023/03/02 01:23:48;;;;;;;1.83;1.38;;;;;;;-1.50;55.41;99127.91;6085963;23;20018;-83
2023/03/02 01:26:17;;;;;;;3.05;1.77;;;;;;;-0.75;55.37;99240.66;6037820;23;20156;-83
2023/03/02 01:28:43;;;;;;;3.13;1.27;;;;;;;-1.12;55.67;99178.34;6062323;23;20022;-83
2023/03/02 01:31:11;;;;;;;3.33;1.25;;;;;;;-0.73;55.50;99256.91;6110550;23;20051;-85
2023/03/02 01:33:42;;;;;;;4.57;1.50;;;;;;;-0.73;55.40;99248.38;6092350;23;20026;-84
2023/03/02 01:36:11;;;;;;;2.88;1.63;;;;;;;-1.45;55.06;99131.47;6119940;23;20029;-83
2023/03/02 01:38:41;;;;;;;4.18;1.17;;;;;;;-0.72;55.10;99261.19;6084531;23;20022;-82
2023/03/02 01:41:07;;;;;;;1.95;1.20;;;;;;;-1.51;54.57;99136.38;6088853;23;20010;-82
2023/03/02 01:43:35;;;;;;;1.83;1.10;;;;;;;-1.64;54.61;99122.38;6091501;23;20026;-83
2023/03/02 01:46:14;;;;;;;1.80;0.98;;;;;;;-0.94;55.03;99250.38;6061150;23;20060;-82
2023/03/02 01:49:04;;;;;;;1.40;0.98;;;;;;;-1.02;54.67;99256.97;6084716;23;20022;-84
2023/03/02 01:51:46;;;;;;;2.38;1.08;;;;;;;-1.00;54.57;99257.88;6061000;23;20054;-83
2023/03/02 01:54:24;;;;;;;1.42;0.95;;;;;;;-1.59;53.69;99161.69;6109367;23;20014;-84
2023/03/02 01:57:02;;;;;;;2.50;1.13;;;;;;;-1.01;54.70;99237.38;6037918;23;20113;-86
2023/03/02 01:59:42;;;;;;;3.70;1.23;;;;;;;-1.02;53.88;99235.66;6042926;23;20105;-82
2023/03/02 02:02:15;;;;;;;2.50;1.20;;;;;;;-1.74;54.05;99094.91;6085890;23;20025;-83
2023/03/02 02:04:43;;;;;;;;;;;;;;;-0.72;53.67;99243.31;6039823;23;20096;-81
2023/03/02 02:07:14;;;;;;;;;;;;;;;-0.70;53.57;99248.47;6085505;23;20447;-84
2023/03/02 02:10:00;;;;;;;4.00;1.10;;;;;;;-0.71;53.45;99268.03;6063399;23;20393;-85
2023/03/02 02:12:33;;;;;;;2.50;1.40;;;;;;;-1.65;52.87;99120.66;6086649;23;20026;-85
2023/03/02 02:15:20;;;;;;;5.50;2.03;;;;;;;-1.61;53.14;99130.13;6069243;23;20029;-83
2023/03/02 02:17:47;;;;;;;5.68;2.10;;;;;;;-0.68;53.08;99273.25;6083407;23;20049;-84
2023/03/02 02:20:38;;;;;;;4.63;1.90;;;;;;;-0.68;52.74;99288.56;6083191;23;20014;-84
2023/03/02 02:23:24;;;;;;;8.20;2.55;;;;;;;-0.72;52.68;99276.53;6061452;23;20109;-82
2023/03/02 02:26:27;;;;;;;5.05;2.15;;;;;;;-0.71;52.07;99268.03;6064287;23;20456;-83
2023/03/02 02:29:21;;;;;;;2.97;1.42;;;;;;;-0.94;52.38;99232.47;6058457;23;20018;-82
2023/03/02 02:32:11;;;;;;;2.33;1.38;;;;;;;-0.86;52.62;99262.50;6084145;23;20089;-87
2023/03/02 02:35:07;;;;;;;1.77;0.93;;;;;;;-1.49;52.35;99152.59;6086314;23;20041;-84
2023/03/02 02:38:04;;;;;;;2.35;0.98;;;;;;;-1.12;52.47;99196.22;6070139;23;20029;-81
2023/03/02 02:40:54;;;;;;;1.33;1.00;;;;;;;-0.72;51.81;99279.06;6107251;23;20022;-82
2023/03/02 02:43:31;;;;;;;2.17;0.98;;;;;;;-1.28;52.21;99202.56;6061710;23;20014;-85
2023/03/02 02:45:59;;;;;;;4.53;1.13;;;;;;;-2.52;51.73;99005.88;6059193;23;20024;-85
2023/03/02 02:48:36;;;;;;;1.40;0.85;;;;;;;-1.27;52.07;99191.53;6084319;23;20029;-83
2023/03/02 02:51:05;;;;;;;3.08;0.90;;;;;;;-1.58;51.78;99142.16;6060316;23;20022;-81
2023/03/02 02:53:42;;;;;;;1.67;0.82;;;;;;;-0.80;51.96;99267.78;6058956;23;20022;-84
2023/03/02 02:56:10;;;;;;;1.88;0.90;;;;;;;-0.72;51.89;99273.97;6108280;23;20022;-84
2023/03/02 02:59:04;;;;;;;2.70;0.70;;;;;;;-0.97;51.14;99250.28;6060012;23;20022;-83
2023/03/02 03:01:37;;;;;;;1.08;0.98;;;;;;;-1.97;51.09;99115.47;6035956;23;20034;-84
2023/03/02 03:04:05;;;;;;;3.53;0.70;;;;;;;-0.87;51.47;99319.53;6083434;23;20014;-82
2023/03/02 03:06:40;;;;;;;2.65;1.00;;;;;;;-1.76;51.08;99145.00;6036836;23;20069;-82
2023/03/02 03:09:11;;;;;;;2.40;1.00;;;;;;;-2.17;51.12;99108.09;6088694;23;20053;-81
2023/03/02 03:11:45;;;;;;;0.90;0.68;;;;;;;-1.56;51.10;99194.94;6083859;23;20037;-83
2023/03/02 03:14:27;;;;;;;1.15;0.90;;;;;;;-2.21;51.03;99119.00;6060816;23;20073;-83
2023/03/02 03:16:54;;;;;;;2.28;1.10;;;;;;;-1.56;51.04;99224.72;6065783;23;20022;-82
2023/03/02 03:19:37;;;;;;;2.42;1.10;;;;;;;-1.08;51.38;99305.31;6066490;23;20029;-82
2023/03/02 03:22:10;;;;;;;1.83;0.90;;;;;;;-1.32;51.17;99264.59;6095731;23;20022;-83
2023/03/02 03:24:42;;;;;;;2.00;1.10;;;;;;;-1.88;51.30;99174.44;6052139;23;20033;-84
2023/03/02 03:27:11;;;;;;;1.65;1.10;;;;;;;-1.31;51.27;99263.72;6123367;23;20059;-83
2023/03/02 03:29:46;;;;;;;2.25;1.20;;;;;;;-1.04;50.93;99314.78;6052560;23;19999;-83
2023/03/02 03:32:18;;;;;;;3.78;1.23;;;;;;;-1.39;51.09;99278.81;6098877;23;20010;-82
2023/03/02 03:34:45;;;;;;;2.85;1.10;;;;;;;-1.37;51.14;99265.31;6024142;23;20006;-82
2023/03/02 03:37:22;;;;;;;3.15;1.40;;;;;;;-1.55;51.40;99257.94;6047954;23;20022;-81
2023/03/02 03:39:51;;;;;;;1.85;1.20;;;;;;;-1.25;51.39;99292.91;6069721;23;20084;-82
2023/03/02 03:42:18;;;;;;;4.20;1.55;;;;;;;-1.15;51.10;99318.69;6096201;23;20015;-82
2023/03/02 03:44:45;;;;;;;2.05;1.17;;;;;;;-1.48;51.14;99263.22;6074237;23;20030;-84
2023/03/02 03:47:12;;;;;;;3.53;1.40;;;;;;;-1.63;51.47;99241.50;6049683;23;20006;-82
2023/03/02 03:49:38;;;;;;;3.80;1.25;;;;;;;-1.19;51.67;99314.31;6098412;23;20016;-82
2023/03/02 03:52:09;;;;;;;1.95;1.40;;;;;;;-1.29;51.95;99288.50;6097967;23;20022;-84
2023/03/02 03:54:40;;;;;;;5.80;2.80;;;;;;;-1.18;51.54;99296.50;6069756;23;20032;-80
2023/03/02 03:57:09;;;;;;;4.82;2.10;;;;;;;-1.50;51.48;99241.91;6114437;23;20041;-80
2023/03/02 03:59:40;;;;;;;2.70;1.52;;;;;;;-1.15;51.80;99301.69;6093606;23;20021;-82
2023/03/02 04:02:07;;;;;;;1.50;1.08;;;;;;;-1.09;51.72;99296.75;6039926;23;20412;-83
2023/03/02 04:04:39;;;;;;;2.95;1.40;;;;;;;-1.29;51.85;99259.53;6062330;23;20070;-82
2023/03/02 04:07:16;;;;;;;2.05;1.33;;;;;;;-1.18;51.61;99272.63;6087843;23;20018;-82
2023/03/02 04:09:44;;;;;;;2.10;1.42;;;;;;;-1.10;51.55;99302.69;6085165;23;20560;-85
2023/03/02 04:12:16;;;;;;;2.33;1.10;;;;;;;-1.13;52.10;99315.38;6040396;23;20037;-84
2023/03/02 04:14:49;;;;;;;2.55;1.00;;;;;;;-1.15;51.84;99311.03;6063676;23;20049;-82
2023/03/02 04:17:15;;;;;;;2.42;1.02;;;;;;;-1.72;51.77;99198.72;6059389;23;20018;-82
2023/03/02 04:19:48;;;;;;;2.50;0.95;;;;;;;-1.67;51.66;99217.59;6086171;23;20022;-85
2023/03/02 04:22:18;;;;;;;1.83;1.15;;;;;;;-1.14;51.81;99316.19;6085117;23;20321;-83
2023/03/02 04:24:55;;;;;;;2.30;1.20;;;;;;;-1.26;51.82;99296.25;6110046;23;20018;-85
2023/03/02 04:27:23;;;;;;;3.10;1.27;;;;;;;-2.27;51.67;99140.06;6061600;23;20025;-82
2023/03/02 04:29:51;;;;;;;2.50;1.25;;;;;;;-1.88;51.99;99211.81;6060109;23;20029;-85
2023/03/02 04:32:25;;;;;;;3.78;1.42;;;;;;;-1.94;52.06;99189.53;6083926;23;20018;-83
2023/03/02 04:34:55;;;;;;;3.50;1.20;;;;;;;-2.60;51.80;99099.06;6117677;23;20018;-81
2023/03/02 04:37:23;;;;;;;1.40;1.00;;;;;;;-2.59;51.86;99104.19;6060909;23;20018;-79
2023/03/02 04:39:51;;;;;;;4.97;1.10;;;;;;;-1.23;52.01;99311.69;6082615;23;20018;-83
2023/03/02 04:42:19;;;;;;;1.95;0.98;;;;;;;-1.34;51.43;99297.69;6109874;23;20014;-82
2023/03/02 04:44:45;;;;;;;2.60;1.60;;;;;;;-1.22;51.80;99328.75;6084313;23;20014;-80
2023/03/02 04:47:14;;;;;;;3.03;1.00;;;;;;;-1.22;51.59;99338.06;6043271;23;20086;-81
2023/03/02 04:49:49;;;;;;;2.15;1.08;;;;;;;-1.49;51.49;99310.00;6094057;23;20006;-81
2023/03/02 04:52:15;;;;;;;1.33;0.90;;;;;;;-1.77;52.08;99265.72;6070591;23;20022;-80
2023/03/02 04:54:56;;;;;;;3.60;1.00;;;;;;;-2.05;51.94;99213.81;6097046;23;20054;-82
2023/03/02 04:57:33;;;;;;;1.58;1.17;;;;;;;-1.87;51.22;99241.59;6115410;23;20022;-83
2023/03/02 05:00:13;;;;;;;2.25;1.17;;;;;;;-1.33;51.77;99332.63;6042088;23;20014;-82
2023/03/02 05:02:40;;;;;;;2.22;1.33;;;;;;;-1.42;51.14;99315.34;6040971;23;20025;-84
2023/03/02 05:05:20;;;;;;;3.28;1.38;;;;;;;-2.21;51.35;99174.22;6086818;23;20050;-80
2023/03/02 05:07:50;;;;;;;2.00;1.08;;;;;;;-1.39;51.26;99334.97;6060378;23;20018;-83
2023/03/02 05:10:22;;;;;;;2.83;1.08;;;;;;;-1.70;51.78;99282.97;6085414;23;20034;-83
2023/03/02 05:13:04;;;;;;;1.27;1.00;;;;;;;-2.05;51.58;99245.28;6087583;23;20022;-83
2023/03/02 05:15:36;;;;;;;2.47;1.08;;;;;;;-1.58;51.73;99316.53;6064932;23;20463;-85
2023/03/02 05:18:03;;;;;;;1.83;1.20;;;;;;;-1.69;51.01;99300.03;6088685;23;20025;-83
2023/03/02 05:20:30;;;;;;;2.78;1.55;;;;;;;-1.08;51.30;99408.31;6061585;23;20018;-83
2023/03/02 05:23:04;;;;;;;4.55;1.20;;;;;;;-1.82;51.04;99299.59;6063711;23;20059;-84
2023/03/02 05:25:39;;;;;;;1.58;1.10;;;;;;;-1.28;51.21;99405.13;6085036;23;20022;-81
2023/03/02 05:28:06;;;;;;;2.67;1.10;;;;;;;-1.61;51.29;99380.22;6038342;23;20025;-87
2023/03/02 05:30:48;;;;;;;3.83;1.23;;;;;;;-1.49;51.51;99389.13;6084892;23;20022;-83
2023/03/02 05:33:17;;;;;;;2.45;1.17;;;;;;;-1.21;51.31;99408.75;6108940;23;20033;-82
2023/03/02 05:35:49;;;;;;;2.33;0.73;;;;;;;-1.91;50.90;99291.66;6065392;23;20046;-84
2023/03/02 05:38:19;;;;;;;2.15;1.40;;;;;;;-1.08;51.47;99410.88;6088894;23;20053;-85
2023/03/02 05:40:50;;;;;;;;;;;;;;;-1.04;50.75;99409.31;6063916;23;20117;-84
2023/03/02 05:43:25;;;;;;;1.77;1.00;;;;;;;-2.32;51.32;99209.56;6110283;23;19980;-83
2023/03/02 05:45:59;;;;;;;2.45;1.00;;;;;;;-1.29;51.09;99382.97;6062544;23;20022;-80
2023/03/02 05:48:27;;;;;;;2.30;1.20;;;;;;;-1.66;51.34;99302.66;6109846;23;20022;-83
2023/03/02 05:51:14;;;;;;;3.63;0.98;;;;;;;-1.13;50.86;99378.34;6088006;23;20023;-85
2023/03/02 05:53:43;;;;;;;1.92;0.98;;;;;;;-0.86;50.89;99429.44;6064114;23;20018;-82
2023/03/02 05:56:15;;;;;;;1.73;1.20;;;;;;;-1.34;51.16;99350.47;6088161;23;20105;-84
2023/03/02 05:58:45;;;;;;;4.55;1.27;;;;;;;-1.15;50.79;99372.31;6109395;23;20033;-85
2023/03/02 06:01:37;;;;;;;1.67;1.10;;;;;;;-1.60;50.56;99305.41;6068750;23;20438;-83
2023/03/02 06:04:04;;;;;;;1.95;1.10;;;;;;;-1.03;49.96;99389.72;6035895;23;20049;-84
2023/03/02 06:06:56;;;;;;;2.28;1.20;;;;;;;-0.77;50.61;99424.59;6061022;23;20045;-81
2023/03/02 06:09:56;;;;;;;;;;;;;;;;;;;;;
2023/03/02 06:13:05;;;;;;;10.55;2.17;;;;;;;-1.10;50.89;99384.41;6060107;23;20014;-81
2023/03/02 06:15:39;;;;;;;2.28;1.38;;;;;;;-2.14;50.54;99220.38;6084840;23;20030;-83
2023/03/02 06:18:26;;;;;;;2.50;1.42;;;;;;;-0.95;51.03;99409.56;6084022;23;20050;-81
2023/03/02 06:20:53;;;;;;;2.45;1.42;;;;;;;-0.75;49.56;99468.09;6108267;23;20014;-82
2023/03/02 06:23:22;;;;;;;2.58;1.20;;;;;;;-0.73;50.28;99455.38;6060918;23;20042;-80
2023/03/02 06:25:48;;;;;;;3.53;1.45;;;;;;;-1.00;50.10;99407.69;6116356;23;20018;-79
2023/03/02 06:29:06;;;;;;;3.58;1.40;;;;;;;-0.74;50.34;99441.72;6088925;23;20041;-79
2023/03/02 06:32:03;;;;;;;2.78;1.40;;;;;;;-1.43;51.27;99299.94;6029979;23;20031;-78
2023/03/02 06:34:32;;;;;;;2.80;1.55;;;;;;;-0.65;50.31;99413.91;6066903;23;20018;-80
2023/03/02 06:37:04;;;;;;;3.58;1.63;;;;;;;-0.86;50.77;99362.13;6086187;23;20073;-78
2023/03/02 06:39:31;;;;;;;4.85;1.42;;;;;;;-1.59;50.35;99224.63;6038317;23;20018;-80
2023/03/02 06:42:06;;;;;;;2.30;1.50;;;;;;;-0.50;50.41;99371.72;6062525;23;20021;-79
2023/03/02 06:48:27;;;;;;;3.20;1.60;;;;;;;-0.71;50.25;99308.94;6101922;23;20019;-79
2023/03/02 06:51:08;;;;;;;2.65;1.58;;;;;;;-1.04;49.91;99240.72;6113505;23;20030;-81
2023/03/02 06:58:18;;;;;;;4.57;1.65;;;;;;;0.34;49.96;99413.25;5951230;24;20024;-88
2023/03/02 07:05:48;;;;;;;4.43;1.67;;;;;;;-0.13;50.20;99193.72;5949268;24;20065;-84
2023/03/02 07:08:25;;;;;;;2.33;1.50;;;;;;;0.85;49.17;99301.78;5902852;24;20002;-86
2023/03/02 07:10:54;;;;;;;2.58;1.40;;;;;;;1.73;49.37;99414.75;6007128;23;20026;-86
2023/03/02 07:13:28;;;;;;;4.68;1.67;;;;;;;1.44;48.91;99303.00;6115818;23;20034;-86
2023/03/02 07:17:08;;;;;;;2.55;1.60;;;;;;;1.41;48.73;99200.41;6077229;23;20026;-85
2023/03/02 07:19:50;;;;;;;2.42;1.50;;;;;;;2.15;48.08;99211.06;6029743;23;20023;-82
2023/03/02 07:30:28;;;;;;;3.78;1.83;;;;;;;3.98;45.46;99303.34;6115709;23;20045;-83
2023/03/02 07:32:57;;;;;;;3.72;1.52;;;;;;;3.65;45.22;99219.81;6117291;23;20484;-81
2023/03/02 07:35:26;;;;;;;2.53;1.63;;;;;;;4.52;44.37;99377.69;6116834;23;20029;-85
2023/03/02 07:37:52;;;;;;;2.58;1.70;;;;;;;3.25;43.19;99201.38;6115188;23;20025;-81
2023/03/02 07:41:08;;;;;;;2.70;1.70;;;;;;;3.27;43.73;99282.00;6142775;23;20077;-84
2023/03/02 07:44:15;;;;;;;3.40;1.70;;;;;;;3.54;43.83;99386.06;6032810;23;20078;-85
2023/03/02 07:46:44;;;;;;;2.85;1.63;;;;;;;2.52;43.64;99231.31;5985580;23;20023;-82
2023/03/02 07:49:31;;;;;;;3.03;1.85;;;;;;;3.08;43.92;99347.72;5960412;23;20076;-89
2023/03/02 07:52:56;;;;;;;4.45;2.00;;;;;;;3.25;44.16;99392.53;6004439;23;20018;-88
2023/03/02 07:55:52;;;;;;;2.47;1.48;;;;;;;1.69;43.75;99171.81;6104199;23;20052;-88
2023/03/02 07:58:18;;;;;;;2.35;1.40;;;;;;;2.46;43.94;99313.41;6145713;23;20077;-82
2023/03/02 08:00:58;;;;;;;1.85;1.20;;;;;;;1.88;43.14;99285.88;6147929;23;20123;-84
2023/03/02 08:03:29;;;;;;;;;;;;;;;2.35;43.26;99403.09;6098926;23;20013;-81
2023/03/02 08:05:59;;;;;;;2.65;1.27;;;;;;;0.88;43.52;99201.94;6096191;23;20048;-81
2023/03/02 08:08:29;;;;;;;3.28;1.42;;;;;;;1.11;43.98;99273.31;6117623;23;20017;-83
2023/03/02 08:11:02;;;;;;;2.78;1.35;;;;;;;1.82;44.51;99370.44;6117669;23;20014;-81
2023/03/02 08:13:28;;;;;;;3.58;1.45;;;;;;;1.68;43.88;99319.72;6097797;23;20026;-82
2023/03/02 08:16:08;;;;;;;2.60;1.42;;;;;;;1.93;44.05;99417.69;6118733;23;20021;-84
2023/03/02 08:18:42;;;;;;;3.25;1.73;;;;;;;0.84;43.91;99218.06;6096861;23;20040;-84
2023/03/02 08:21:40;;;;;;;2.53;1.23;;;;;;;1.90;43.53;99391.97;6114364;23;20029;-85
2023/03/02 08:24:09;;;;;;;2.10;1.40;;;;;;;1.59;43.49;99325.53;6142597;23;20025;-84
2023/03/02 08:26:35;;;;;;;1.90;1.20;;;;;;;2.07;43.53;99397.44;6115971;23;20021;-82
2023/03/02 08:29:06;;;;;;;1.48;1.27;;;;;;;1.59;43.95;99252.88;6095496;23;20024;-84
2023/03/02 08:31:32;;;;;;;2.08;1.40;;;;;;;2.46;43.10;99380.19;6089021;23;20041;-81
2023/03/02 08:34:04;;;;;;;2.50;1.30;;;;;;;1.43;43.04;99157.72;6136254;23;20018;-84
2023/03/02 08:36:31;;;;;;;2.05;1.20;;;;;;;2.36;42.89;99279.84;6114082;23;20025;-82
2023/03/02 08:39:23;;;;;;;1.98;1.30;;;;;;;2.04;42.79;99208.31;6142147;23;20022;-82
2023/03/02 08:42:12;;;;;;;2.92;1.70;;;;;;;2.36;41.83;99277.28;6109601;23;20020;-83
2023/03/02 08:44:44;;;;;;;2.40;1.40;;;;;;;2.33;42.05;99281.50;6109973;23;20022;-84
2023/03/02 08:48:29;;;;;;;2.78;1.30;;;;;;;2.67;41.90;99380.53;6088713;23;20018;-83
2023/03/02 08:50:57;;;;;;;3.67;2.00;;;;;;;3.04;42.12;99379.38;6113129;23;20018;-85
2023/03/02 08:53:41;;;;;;;2.05;1.30;;;;;;;2.74;42.12;99190.50;6094386;23;20045;-84
2023/03/02 08:56:15;;;;;;;2.33;1.38;;;;;;;4.30;40.82;99363.78;6102161;23;19998;-82
2023/03/02 08:58:44;;;;;;;3.83;1.60;;;;;;;4.37;40.80;99357.81;6092712;23;20029;-83
2023/03/02 09:01:27;;;;;;;2.53;1.27;;;;;;;4.23;40.16;99355.09;6089633;23;20025;-83
2023/03/02 09:03:57;;;;;;;2.72;1.50;;;;;;;3.62;40.60;99237.78;6112407;23;20507;-83
2023/03/02 09:06:31;;;;;;;3.33;1.30;;;;;;;3.84;40.12;99292.06;6115253;23;20045;-83
2023/03/02 09:09:15;;;;;;;1.58;1.40;;;;;;;3.54;39.97;99253.16;6116258;23;20044;-84
2023/03/02 09:11:51;;;;;;;2.85;1.48;;;;;;;2.83;39.30;99146.91;6066031;23;20030;-83
2023/03/02 09:14:26;;;;;;;2.72;1.40;;;;;;;4.28;40.31;99371.47;6114619;23;20017;-83
2023/03/02 09:16:58;;;;;;;5.55;1.67;;;;;;;3.29;40.26;99206.56;6093966;23;20046;-83
2023/03/02 09:19:40;;;;;;;2.47;1.45;;;;;;;3.12;39.69;99183.22;6095114;23;20467;-84
2023/03/02 09:23:11;;;;;;;5.18;1.60;;;;;;;4.01;39.71;99336.84;6117142;23;20070;-85
2023/03/02 09:26:05;;;;;;;3.47;1.63;;;;;;;3.12;39.48;99197.81;6104809;23;20010;-84
2023/03/02 09:29:10;;;;;;;2.63;1.65;;;;;;;3.60;39.19;99276.38;6112506;23;20010;-85
2023/03/02 09:36:14;;;;;;;2.75;1.50;;;;;;;4.03;39.01;99370.38;6102160;23;20138;-84
2023/03/02 09:38:40;;;;;;;3.33;1.38;;;;;;;3.69;39.16;99339.97;6032566;23;20101;-85
2023/03/02 09:41:18;;;;;;;2.85;1.70;;;;;;;3.76;39.25;99340.88;6081829;23;20021;-86
2023/03/02 09:44:00;;;;;;;2.75;1.30;;;;;;;3.83;38.77;99364.97;6058122;23;20416;-84
2023/03/02 09:46:43;;;;;;;1.50;1.30;;;;;;;2.98;38.98;99233.63;6057605;23;20029;-85
2023/03/02 09:49:18;;;;;;;1.80;1.15;;;;;;;4.13;38.94;99353.28;6104600;23;20021;-85
2023/03/02 09:52:10;;;;;;;5.63;1.50;;;;;;;3.65;39.23;99275.53;6059992;23;20125;-85
2023/03/02 09:54:59;;;;;;;4.32;1.20;;;;;;;4.49;38.99;99352.78;6029756;23;20107;-85
2023/03/02 09:57:36;;;;;;;2.03;1.27;;;;;;;3.19;38.47;99119.03;6028778;23;20022;-84
2023/03/02 10:00:31;;;;;;;4.28;1.83;;;;;;;3.45;38.16;99181.88;6078537;23;20709;-83
2023/03/02 10:03:07;;;;;;;3.63;1.73;;;;;;;3.54;37.94;99178.53;6034312;23;20337;-84
2023/03/02 10:05:43;;;;;;;2.80;1.88;;;;;;;3.84;37.56;99246.59;6054054;23;20037;-85
2023/03/02 10:08:49;;;;;;;2.13;1.55;;;;;;;3.12;38.55;99152.38;6053527;23;20025;-85
2023/03/02 10:11:35;;;;;;;2.85;1.75;;;;;;;3.40;38.61;99203.28;6038284;23;20057;-83
2023/03/02 10:14:46;;;;;;;4.05;1.70;;;;;;;2.90;38.55;99129.84;6079418;23;20074;-84
2023/03/02 10:17:25;;;;;;;4.10;1.50;;;;;;;2.79;38.41;99099.78;6042887;23;20015;-83
2023/03/02 10:20:17;;;;;;;2.00;1.75;;;;;;;3.96;38.95;99193.50;6076429;23;20011;-84
2023/03/02 10:22:53;;;;;;;4.28;1.60;;;;;;;3.56;38.35;99096.22;6116194;23;20026;-83
2023/03/02 10:26:01;;;;;;;3.50;1.50;;;;;;;4.05;37.92;99193.56;6086812;23;20023;-85
2023/03/02 10:28:59;;;;;;;2.00;1.40;;;;;;;3.41;37.82;99048.94;6078504;23;20090;-82
2023/03/02 10:31:52;;;;;;;3.88;1.40;;;;;;;5.36;37.01;99299.19;6083925;23;20068;-86
2023/03/02 10:34:56;;;;;;;1.83;1.40;;;;;;;4.85;36.86;99182.91;6061166;23;20022;-86
2023/03/02 10:37:55;;;;;;;;;;;;;;;;;;;;;
2023/03/02 10:45:36;;;;;;;;;;;;;;;;;;;;;
2023/03/02 10:48:49;;;;;;;3.22;1.60;;;;;;;4.65;36.71;99199.09;6072444;23;20022;-82
2023/03/02 10:51:34;;;;;;;2.90;1.80;;;;;;;5.07;36.31;99217.38;6098130;23;20357;-82
2023/03/02 10:54:06;;;;;;;2.65;1.90;;;;;;;5.41;36.26;99260.50;6048796;23;20022;-80
2023/03/02 10:56:35;;;;;;;4.03;1.50;;;;;;;4.33;36.76;99111.31;6050694;23;20025;-78
2023/03/02 10:59:28;;;;;;;4.60;1.40;;;;;;;5.30;36.37;99255.28;6097313;23;20014;-80
2023/03/02 11:02:17;;;;;;;2.97;1.77;;;;;;;4.60;36.41;99145.81;6034277;23;20021;-80
2023/03/02 11:05:03;;;;;;;;;;;;;;;;;;;;;
2023/03/02 11:08:08;;;;;;;3.88;1.80;;;;;;;4.68;37.47;99248.09;6055737;23;20029;-84
2023/03/02 11:10:50;;;;;;;3.03;1.80;;;;;;;4.61;36.90;99260.94;6073365;23;20026;-83
2023/03/02 11:13:39;;;;;;;2.92;1.75;;;;;;;4.15;36.82;99205.66;6050339;23;20451;-82
2023/03/02 11:16:17;;;;;;;3.58;1.95;;;;;;;4.11;36.85;99244.25;6099825;23;20018;-81
2023/03/02 11:19:20;;;;;;;;;;;;;;;;;;;;;
2023/03/02 11:22:05;;;;;;;4.57;1.90;;;;;;;3.36;37.36;99237.53;6081615;23;20010;-82
2023/03/02 11:24:50;;;;;;;2.97;1.90;;;;;;;1.78;37.74;99043.69;6101763;23;20073;-81
2023/03/02 11:27:28;;;;;;;2.92;1.80;;;;;;;2.63;38.43;99234.88;6080742;23;20089;-81
2023/03/02 11:30:12;;;;;;;6.50;2.20;;;;;;;2.53;38.58;99209.91;6073097;23;20078;-80
2023/03/02 11:33:04;;;;;;;4.07;1.85;;;;;;;2.40;38.68;99239.69;6050097;23;20018;-80
2023/03/02 11:35:57;;;;;;;3.97;2.13;;;;;;;2.24;38.79;99218.88;6070773;23;20161;-81
2023/03/02 11:38:34;;;;;;;3.25;1.85;;;;;;;1.31;38.99;99099.38;6005268;23;20093;-80
2023/03/02 11:41:29;;;;;;;3.33;1.88;;;;;;;1.82;39.16;99219.06;6049223;23;20446;-80
2023/03/02 11:44:15;;;;;;;4.20;1.67;;;;;;;1.70;40.01;99205.19;6045763;23;20104;-81
2023/03/02 11:46:43;;;;;;;;;;;;;;;1.46;40.27;99193.63;6076545;23;20018;-80
2023/03/02 11:49:18;;;;;;;3.38;2.00;;;;;;;1.15;40.01;99162.31;6070288;23;19913;-80
2023/03/02 11:51:58;;;;;;;6.68;2.15;;;;;;;1.11;40.79;99155.41;6049285;23;20019;-80
2023/03/02 11:57:47;;;;;;;5.65;2.00;;;;;;;0.68;40.39;99036.75;6062665;23;21079;-79
2023/03/02 12:00:16;;;;;;;2.33;1.65;;;;;;;1.75;40.61;99184.75;6037770;23;20038;-83
2023/03/02 12:02:43;;;;;;;2.88;1.38;;;;;;;1.78;40.20;99193.34;6064186;23;20053;-79
2023/03/02 12:05:25;;;;;;;3.30;1.48;;;;;;;1.69;40.51;99195.75;6063092;23;20114;-81
2023/03/02 12:08:00;;;;;;;2.28;1.38;;;;;;;1.29;40.91;99146.31;6036978;23;20030;-79
2023/03/02 12:10:40;;;;;;;2.38;1.50;;;;;;;1.42;41.31;99181.63;6059380;23;20055;-81
2023/03/02 12:13:14;;;;;;;2.95;1.35;;;;;;;1.17;41.03;99149.53;6060106;23;20026;-80
2023/03/02 12:15:42;;;;;;;1.98;1.75;;;;;;;1.17;41.64;99180.28;6037579;23;20019;-81
2023/03/02 12:18:42;;;;;;;3.17;1.48;;;;;;;1.14;41.75;99185.34;6061032;23;20015;-83
2023/03/02 13:10:12;;;;;;;;;;;;;;;;;;;;;
2023/03/02 13:13:14;;;;;;;5.25;1.17;;;;;;;-0.10;45.09;99104.22;6099140;23;20054;-81
2023/03/02 13:16:30;;;;;;;4.30;1.27;;;;;;;-0.32;45.44;99069.66;6109690;23;20018;-81
2023/03/02 13:43:17;;;;;;;;;;;;;;;;;;;;;
2023/03/02 13:56:42;;;;;;;2.50;1.48;;;;;;;-0.55;47.48;99039.28;5921324;24;20097;-81
2023/03/02 14:05:38;;;;;;;1.88;1.20;;;;;;;-0.56;47.72;99041.81;5893703;24;20523;-78
2023/03/02 14:42:13;;;;;;;1.98;1.17;;;;;;;-0.66;48.48;98977.69;5987698;24;20035;-80
2023/03/02 14:59:39;;;;;;;2.75;1.13;;;;;;;-0.67;48.90;98945.31;5849680;24;20089;-81
2023/03/02 15:35:49;;;;;;;2.40;1.20;;;;;;;-0.93;50.50;98922.56;5851110;24;20418;-83
2023/03/02 15:45:16;;;;;;;1.63;0.98;;;;;;;-0.91;51.11;98915.81;5797064;24;20024;-81
2023/03/02 17:53:17;;;;;;;1.33;1.02;;;;;;;-0.92;58.58;98852.78;6095690;23;20033;-82
2023/03/02 18:32:56;;;;;;;8.32;2.42;;;;;;;-0.39;60.36;98843.66;5844432;24;20088;-83
2023/03/02 21:56:14;;;;;;;7.32;3.00;;;;;;;0.08;63.79;98707.22;6092857;23;20072;-82
